Time;durP1;ratioP1;P1;durP2;ratioP2;P2;SDS_P1;SDS_P2;PMS_P1;PMS_P2;Temp;Humidity;BMP_temperature;BMP_pressure;BME280_temperature;BME280_humidity;BME280_pressure;Samples;Min_cycle;Max_cycle;Signal;HPM_P1;HPM_P2
2022/04/19 00:01:37;;;;;;;7.80;4.30;;;;;;;;;;5075080;28;20230;-79
2022/04/19 00:04:05;;;;;;;4.50;3.23;;;;;;;;;;5069101;28;20206;-78
2022/04/19 00:06:35;;;;;;;4.70;3.37;;;;;;;;;;5068897;28;20306;-77
2022/04/19 00:09:03;;;;;;;3.57;2.57;;;;;;;;;;5072025;28;20204;-77
2022/04/19 00:11:31;;;;;;;4.40;2.70;;;;;;;;;;5071705;28;20217;-79
2022/04/19 00:13:59;;;;;;;3.73;2.53;;;;;;;;;;5058457;28;20206;-78
2022/04/19 00:16:27;;;;;;;3.67;2.57;;;;;;;;;;5058313;28;20233;-78
2022/04/19 00:18:55;;;;;;;5.80;3.20;;;;;;;;;;5058250;28;20260;-77
2022/04/19 00:21:23;;;;;;;3.77;2.60;;;;;;;;;;5058264;28;20207;-79
2022/04/19 00:23:53;;;;;;;4.00;2.97;;;;;;;;;;5058313;28;20218;-79
2022/04/19 00:26:22;;;;;;;4.70;3.13;;;;;;;;;;5058358;28;20239;-78
2022/04/19 00:28:50;;;;;;;4.50;3.03;;;;;;;;;;5070796;28;20212;-77
2022/04/19 00:31:18;;;;;;;6.57;3.37;;;;;;;;;;5068339;28;20214;-79
2022/04/19 00:33:46;;;;;;;5.37;3.43;;;;;;;;;;5058061;28;20209;-79
2022/04/19 00:36:14;;;;;;;5.03;3.50;;;;;;;;;;5057313;28;20253;-78
2022/04/19 00:38:42;;;;;;;4.60;3.13;;;;;;;;;;5057892;28;20316;-78
2022/04/19 00:41:12;;;;;;;6.13;3.60;;;;;;;;;;5058115;28;20213;-77
2022/04/19 00:43:40;;;;;;;6.10;3.60;;;;;;;;;;5057688;28;20290;-79
2022/04/19 00:46:08;;;;;;;3.73;2.80;;;;;;;;;;5065008;28;20983;-78
2022/04/19 00:48:36;;;;;;;6.17;2.90;;;;;;;;;;5057107;28;20240;-78
2022/04/19 00:51:04;;;;;;;7.10;3.10;;;;;;;;;;5057482;28;20199;-78
2022/04/19 00:53:34;;;;;;;6.93;2.73;;;;;;;;;;5057292;28;20207;-77
2022/04/19 00:56:03;;;;;;;2.73;2.30;;;;;;;;;;5057948;28;20280;-77
2022/04/19 00:58:32;;;;;;;2.13;1.90;;;;;;;;;;5062318;28;20210;-77
2022/04/19 01:01:01;;;;;;;3.37;2.10;;;;;;;;;;5071118;28;20228;-78
2022/04/19 01:03:29;;;;;;;2.30;2.10;;;;;;;;;;5077769;28;20206;-78
2022/04/19 01:05:58;;;;;;;4.87;2.40;;;;;;;;;;5077334;28;20230;-77
2022/04/19 01:08:28;;;;;;;2.40;2.20;;;;;;;;;;5077432;28;20238;-78
2022/04/19 01:13:40;;;;;;;2.50;2.30;;;;;;;;;;5057334;28;20605;-77
2022/04/19 01:16:09;;;;;;;2.63;2.03;;;;;;;;;;5057622;28;20242;-77
2022/04/19 01:18:37;;;;;;;2.53;1.70;;;;;;;;;;5057099;28;20229;-77
2022/04/19 01:21:06;;;;;;;3.27;1.80;;;;;;;;;;5057225;28;20230;-77
2022/04/19 01:23:35;;;;;;;4.33;2.07;;;;;;;;;;5057559;28;20214;-77
2022/04/19 01:26:03;;;;;;;2.60;2.33;;;;;;;;;;5057130;28;20233;-77
2022/04/19 01:28:31;;;;;;;3.57;2.83;;;;;;;;;;5057640;28;20211;-77
2022/04/19 01:30:59;;;;;;;4.03;1.70;;;;;;;;;;5064263;28;20202;-77
2022/04/19 01:33:27;;;;;;;2.70;1.90;;;;;;;;;;5077136;28;20216;-77
2022/04/19 01:35:55;;;;;;;2.10;1.90;;;;;;;;;;5077249;28;20230;-77
2022/04/19 01:38:23;;;;;;;3.40;2.33;;;;;;;;;;5077255;28;20206;-77
2022/04/19 01:40:52;;;;;;;3.93;2.40;;;;;;;;;;5077310;28;20236;-77
2022/04/19 01:43:20;;;;;;;2.80;1.90;;;;;;;;;;5077135;28;20210;-76
2022/04/19 01:45:48;;;;;;;1.93;1.80;;;;;;;;;;5068256;28;20226;-78
2022/04/19 01:48:16;;;;;;;2.97;2.17;;;;;;;;;;5057403;28;20203;-77
2022/04/19 01:50:45;;;;;;;2.63;2.10;;;;;;;;;;5057095;28;20271;-77
2022/04/19 01:53:14;;;;;;;2.27;1.93;;;;;;;;;;5057078;28;20211;-79
2022/04/19 01:55:44;;;;;;;3.37;2.17;;;;;;;;;;5057083;28;20222;-77
2022/04/19 01:58:13;;;;;;;2.50;1.93;;;;;;;;;;5066635;28;20294;-77
2022/04/19 02:00:41;;;;;;;3.90;2.13;;;;;;;;;;5077946;28;20226;-79
2022/04/19 02:03:09;;;;;;;2.70;2.00;;;;;;;;;;5080592;28;20270;-79
2022/04/19 02:05:37;;;;;;;3.17;2.30;;;;;;;;;;5080616;28;20222;-79
2022/04/19 02:08:05;;;;;;;4.83;2.30;;;;;;;;;;5075480;28;20283;-79
2022/04/19 02:10:33;;;;;;;2.33;1.90;;;;;;;;;;5076444;28;20198;-79
2022/04/19 02:13:01;;;;;;;2.00;1.90;;;;;;;;;;5080935;28;20213;-80
2022/04/19 02:15:31;;;;;;;3.70;2.43;;;;;;;;;;5074318;28;20313;-79
2022/04/19 02:17:59;;;;;;;2.33;2.07;;;;;;;;;;5070136;28;20199;-79
2022/04/19 02:20:27;;;;;;;5.43;2.63;;;;;;;;;;5072600;28;20284;-79
2022/04/19 02:22:55;;;;;;;4.90;2.23;;;;;;;;;;5070576;28;20202;-79
2022/04/19 02:25:24;;;;;;;3.63;2.60;;;;;;;;;;5068059;28;20236;-79
2022/04/19 02:27:53;;;;;;;4.40;2.53;;;;;;;;;;5067485;28;20285;-79
2022/04/19 02:30:21;;;;;;;3.43;2.60;;;;;;;;;;5070711;28;20681;-79
2022/04/19 02:32:51;;;;;;;5.87;2.67;;;;;;;;;;5070538;28;20290;-79
2022/04/19 02:35:20;;;;;;;4.17;2.53;;;;;;;;;;5066758;28;20721;-79
2022/04/19 02:37:49;;;;;;;4.57;2.77;;;;;;;;;;5066490;28;20237;-79
2022/04/19 02:40:18;;;;;;;3.83;2.60;;;;;;;;;;5069061;28;20225;-79
2022/04/19 02:42:46;;;;;;;5.40;2.60;;;;;;;;;;5063951;28;20252;-78
2022/04/19 02:45:14;;;;;;;4.70;2.83;;;;;;;;;;5069581;28;20658;-79
2022/04/19 02:47:42;;;;;;;2.70;2.50;;;;;;;;;;5067643;28;20573;-79
2022/04/19 02:50:11;;;;;;;4.57;3.17;;;;;;;;;;5070469;28;20195;-79
2022/04/19 02:52:39;;;;;;;3.50;2.90;;;;;;;;;;5068432;28;20277;-79
2022/04/19 02:55:08;;;;;;;4.13;3.00;;;;;;;;;;5071089;28;20215;-79
2022/04/19 02:57:36;;;;;;;5.17;3.20;;;;;;;;;;5070329;28;20216;-79
2022/04/19 03:00:04;;;;;;;4.23;3.00;;;;;;;;;;5070150;28;20203;-79
2022/04/19 03:02:33;;;;;;;8.17;3.20;;;;;;;;;;5068559;28;20236;-79
2022/04/19 03:05:01;;;;;;;6.23;3.10;;;;;;;;;;5069189;28;20685;-79
2022/04/19 03:07:31;;;;;;;4.67;3.03;;;;;;;;;;5071512;28;20209;-79
2022/04/19 03:09:59;;;;;;;8.57;2.90;;;;;;;;;;5068068;28;20213;-79
2022/04/19 03:12:27;;;;;;;8.97;3.77;;;;;;;;;;5067271;28;20210;-79
2022/04/19 03:14:55;;;;;;;4.30;2.90;;;;;;;;;;5069874;28;20206;-79
2022/04/19 03:17:23;;;;;;;6.37;2.90;;;;;;;;;;5070168;28;20701;-79
2022/04/19 03:19:51;;;;;;;5.83;3.43;;;;;;;;;;5069556;28;20291;-79
2022/04/19 03:22:19;;;;;;;8.43;4.33;;;;;;;;;;5069729;28;20223;-79
2022/04/19 03:27:43;;;;;;;6.57;3.20;;;;;;;;;;5069033;28;20202;-79
2022/04/19 03:30:14;;;;;;;6.03;3.20;;;;;;;;;;5069191;28;20258;-79
2022/04/19 03:32:44;;;;;;;4.77;2.50;;;;;;;;;;5069204;28;20647;-79
2022/04/19 03:35:12;;;;;;;6.37;3.03;;;;;;;;;;5063942;28;20202;-80
2022/04/19 03:37:40;;;;;;;7.53;3.50;;;;;;;;;;5077856;28;20206;-79
2022/04/19 03:40:10;;;;;;;6.27;3.20;;;;;;;;;;5079067;28;20206;-79
2022/04/19 03:42:40;;;;;;;4.93;3.27;;;;;;;;;;5078360;28;20206;-79
2022/04/19 03:45:08;;;;;;;7.60;3.63;;;;;;;;;;5078041;28;20206;-79
2022/04/19 03:47:36;;;;;;;5.63;3.23;;;;;;;;;;5058961;28;20207;-79
2022/04/19 03:50:05;;;;;;;4.80;2.70;;;;;;;;;;5077668;28;20288;-79
2022/04/19 03:52:33;;;;;;;4.50;3.20;;;;;;;;;;5078582;28;20209;-79
2022/04/19 03:55:02;;;;;;;4.83;3.03;;;;;;;;;;5078786;28;20206;-79
2022/04/19 03:57:31;;;;;;;6.87;3.53;;;;;;;;;;5078452;28;20206;-78
2022/04/19 03:59:59;;;;;;;4.67;3.50;;;;;;;;;;5078588;28;20210;-79
2022/04/19 04:02:28;;;;;;;5.40;3.10;;;;;;;;;;5078416;28;20301;-79
2022/04/19 04:04:56;;;;;;;7.57;4.10;;;;;;;;;;5078616;28;20210;-79
2022/04/19 04:07:26;;;;;;;10.73;4.10;;;;;;;;;;5078231;28;20291;-79
2022/04/19 04:09:54;;;;;;;7.47;3.87;;;;;;;;;;5067331;28;20248;-79
2022/04/19 04:12:22;;;;;;;5.83;3.83;;;;;;;;;;5078321;28;20209;-79
2022/04/19 04:14:51;;;;;;;5.10;3.30;;;;;;;;;;5078209;28;20677;-79
2022/04/19 04:17:19;;;;;;;4.57;3.30;;;;;;;;;;5064317;28;20226;-78
2022/04/19 04:19:50;;;;;;;6.30;3.10;;;;;;;;;;5068087;28;20261;-79
2022/04/19 04:22:18;;;;;;;5.93;3.70;;;;;;;;;;5064812;28;20233;-79
2022/04/19 04:24:46;;;;;;;8.20;4.13;;;;;;;;;;5067610;28;20229;-80
2022/04/19 04:27:15;;;;;;;5.93;3.80;;;;;;;;;;5069031;28;20230;-78
2022/04/19 04:29:43;;;;;;;4.93;3.40;;;;;;;;;;5070711;28;20729;-79
2022/04/19 04:32:13;;;;;;;8.07;4.20;;;;;;;;;;5068187;28;20282;-79
2022/04/19 04:34:41;;;;;;;10.13;3.97;;;;;;;;;;5070607;28;20269;-79
2022/04/19 04:37:09;;;;;;;12.30;3.93;;;;;;;;;;5068045;28;20306;-79
2022/04/19 04:39:37;;;;;;;7.17;3.80;;;;;;;;;;5068779;28;20661;-79
2022/04/19 04:42:06;;;;;;;6.20;3.57;;;;;;;;;;5068269;28;20244;-79
2022/04/19 04:44:34;;;;;;;6.67;3.80;;;;;;;;;;5071346;28;20202;-77
2022/04/19 04:49:48;;;;;;;17.63;4.80;;;;;;;;;;5057875;28;20674;-78
2022/04/19 04:52:16;;;;;;;8.47;3.90;;;;;;;;;;5057496;28;20202;-77
2022/04/19 04:54:44;;;;;;;10.40;4.17;;;;;;;;;;5058881;28;20605;-77
2022/04/19 04:57:12;;;;;;;4.33;3.20;;;;;;;;;;5072621;28;20713;-77
2022/04/19 04:59:40;;;;;;;5.77;3.13;;;;;;;;;;5068163;28;20203;-78
2022/04/19 05:02:08;;;;;;;3.90;3.40;;;;;;;;;;5069416;28;20225;-78
2022/04/19 05:04:36;;;;;;;8.27;3.23;;;;;;;;;;5071299;28;20205;-78
2022/04/19 05:07:06;;;;;;;6.97;2.90;;;;;;;;;;5067584;28;20218;-78
2022/04/19 05:09:34;;;;;;;5.93;2.80;;;;;;;;;;5069221;28;20563;-78
2022/04/19 05:12:02;;;;;;;4.20;2.53;;;;;;;;;;5068774;28;20198;-74
2022/04/19 05:14:30;;;;;;;3.47;2.73;;;;;;;;;;5067424;28;20206;-71
2022/04/19 05:16:58;;;;;;;3.70;3.03;;;;;;;;;;5070047;28;20392;-76
2022/04/19 05:19:26;;;;;;;6.23;3.23;;;;;;;;;;5067016;28;20677;-75
2022/04/19 05:21:54;;;;;;;7.10;3.43;;;;;;;;;;5064250;28;20325;-69
2022/04/19 05:24:23;;;;;;;3.57;3.00;;;;;;;;;;5060896;28;20694;-70
2022/04/19 05:26:51;;;;;;;4.63;3.27;;;;;;;;;;5064561;28;20305;-70
2022/04/19 05:29:19;;;;;;;8.03;3.30;;;;;;;;;;5065818;28;20199;-70
2022/04/19 05:31:47;;;;;;;6.90;3.10;;;;;;;;;;5064258;28;20255;-70
2022/04/19 05:34:15;;;;;;;8.20;3.57;;;;;;;;;;5068979;28;20206;-70
2022/04/19 05:36:43;;;;;;;6.10;3.30;;;;;;;;;;5071836;28;20226;-69
2022/04/19 05:39:11;;;;;;;5.83;3.27;;;;;;;;;;5075408;28;20205;-69
2022/04/19 05:41:40;;;;;;;5.77;3.80;;;;;;;;;;5063445;28;20226;-69
2022/04/19 05:44:08;;;;;;;10.60;4.40;;;;;;;;;;5064045;28;20298;-69
2022/04/19 05:46:37;;;;;;;9.87;4.07;;;;;;;;;;5062731;28;20231;-67
2022/04/19 05:49:05;;;;;;;6.63;4.37;;;;;;;;;;5065678;28;20224;-66
2022/04/19 05:51:33;;;;;;;7.53;4.00;;;;;;;;;;5080490;28;20202;-68
2022/04/19 05:54:01;;;;;;;8.00;4.43;;;;;;;;;;5080648;28;20751;-66
2022/04/19 05:56:30;;;;;;;8.30;4.73;;;;;;;;;;5080599;28;20226;-68
2022/04/19 05:58:59;;;;;;;13.77;4.17;;;;;;;;;;5074166;28;20270;-68
2022/04/19 06:04:51;;;;;;;8.80;4.75;;;;;;;;;;5071965;28;20314;-68
2022/04/19 06:07:02;;;;;;;8.50;4.53;;;;;;;;;;5069815;28;20709;-69
2022/04/19 06:09:30;;;;;;;9.57;4.50;;;;;;;;;;5073336;28;20208;-68
2022/04/19 06:11:58;;;;;;;6.90;4.23;;;;;;;;;;5069364;28;20198;-68
2022/04/19 06:14:27;;;;;;;7.20;4.10;;;;;;;;;;5071560;28;20546;-66
2022/04/19 06:16:56;;;;;;;10.77;4.73;;;;;;;;;;5071706;28;20250;-67
2022/04/19 06:19:25;;;;;;;7.63;4.80;;;;;;;;;;5070266;28;20206;-66
2022/04/19 06:21:53;;;;;;;6.40;3.97;;;;;;;;;;5071426;28;20211;-68
2022/04/19 06:24:21;;;;;;;8.77;5.00;;;;;;;;;;5069927;28;20608;-66
2022/04/19 06:26:49;;;;;;;8.83;4.53;;;;;;;;;;5070607;28;20702;-66
2022/04/19 06:29:17;;;;;;;10.37;5.20;;;;;;;;;;5071891;28;20199;-68
2022/04/19 06:31:46;;;;;;;9.30;5.57;;;;;;;;;;5070412;28;20624;-68
2022/04/19 06:34:14;;;;;;;8.13;4.37;;;;;;;;;;5069137;28;20217;-66
2022/04/19 06:36:42;;;;;;;10.53;5.00;;;;;;;;;;5071457;28;20795;-74
2022/04/19 06:39:10;;;;;;;12.43;5.43;;;;;;;;;;5070709;28;20730;-75
2022/04/19 06:41:38;;;;;;;9.63;5.13;;;;;;;;;;5070154;28;20202;-77
2022/04/19 06:44:08;;;;;;;7.83;4.63;;;;;;;;;;5070883;28;20218;-79
2022/04/19 06:46:37;;;;;;;8.73;5.20;;;;;;;;;;5071069;28;20260;-80
2022/04/19 06:49:06;;;;;;;9.27;5.07;;;;;;;;;;5069402;28;20205;-77
2022/04/19 06:51:34;;;;;;;11.37;5.43;;;;;;;;;;5069394;28;20203;-79
2022/04/19 06:54:02;;;;;;;9.27;5.77;;;;;;;;;;5069130;28;20194;-79
2022/04/19 06:56:31;;;;;;;12.87;5.47;;;;;;;;;;5068114;28;20215;-76
2022/04/19 06:58:59;;;;;;;8.27;5.40;;;;;;;;;;5070123;28;20209;-77
2022/04/19 07:01:35;;;;;;;10.37;5.23;;;;;;;;;;5071366;28;20229;-75
2022/04/19 07:04:03;;;;;;;7.07;4.77;;;;;;;;;;5072584;28;20218;-78
2022/04/19 07:06:33;;;;;;;8.83;4.53;;;;;;;;;;5070348;28;20225;-76
2022/04/19 07:09:01;;;;;;;8.27;5.63;;;;;;;;;;5069673;28;20546;-76
2022/04/19 07:11:29;;;;;;;8.20;5.00;;;;;;;;;;5070490;28;20615;-79
2022/04/19 07:13:57;;;;;;;10.57;5.17;;;;;;;;;;5073231;28;20229;-81
2022/04/19 07:16:25;;;;;;;13.43;4.80;;;;;;;;;;5069746;28;20265;-79
2022/04/19 07:18:54;;;;;;;7.27;5.17;;;;;;;;;;5071205;28;20282;-78
2022/04/19 07:27:10;;;;;;;9.73;4.93;;;;;;;;;;5049555;28;20624;-77
2022/04/19 07:29:38;;;;;;;7.70;5.20;;;;;;;;;;5069823;28;20198;-78
2022/04/19 07:32:07;;;;;;;7.83;4.50;;;;;;;;;;5072863;28;20281;-77
2022/04/19 07:34:35;;;;;;;6.80;4.50;;;;;;;;;;5070056;28;20190;-78
2022/04/19 07:37:04;;;;;;;10.30;5.07;;;;;;;;;;5069949;28;20234;-78
2022/04/19 07:39:33;;;;;;;7.70;4.43;;;;;;;;;;5071680;28;20204;-79
2022/04/19 07:42:01;;;;;;;4.47;3.53;;;;;;;;;;5067931;28;20210;-78
2022/04/19 07:44:31;;;;;;;4.07;2.87;;;;;;;;;;5069282;28;20215;-78
2022/04/19 07:46:59;;;;;;;3.77;3.10;;;;;;;;;;5070024;28;20214;-78
2022/04/19 07:49:27;;;;;;;3.67;3.17;;;;;;;;;;5072954;28;20234;-78
2022/04/19 07:51:55;;;;;;;8.37;3.60;;;;;;;;;;5072221;28;20733;-78
2022/04/19 07:54:23;;;;;;;4.93;3.00;;;;;;;;;;5070537;28;20209;-78
2022/04/19 07:56:52;;;;;;;4.70;2.10;;;;;;;;;;5071594;28;20232;-78
2022/04/19 07:59:20;;;;;;;4.60;2.77;;;;;;;;;;5072574;28;20210;-78
2022/04/19 08:01:48;;;;;;;3.23;2.23;;;;;;;;;;5066390;28;20241;-78
2022/04/19 08:04:17;;;;;;;5.67;2.23;;;;;;;;;;5065309;28;20218;-78
2022/04/19 08:06:45;;;;;;;2.47;1.97;;;;;;;;;;5067846;28;20304;-78
2022/04/19 08:09:12;;;;;;;3.83;1.73;;;;;;;;;;5069238;28;20206;-78
2022/04/19 08:11:40;;;;;;;2.50;2.07;;;;;;;;;;5068470;28;20233;-78
2022/04/19 08:14:10;;;;;;;2.10;1.90;;;;;;;;;;5068243;28;20202;-78
2022/04/19 08:16:38;;;;;;;2.40;1.90;;;;;;;;;;5070267;28;20253;-77
2022/04/19 08:19:06;;;;;;;3.23;1.90;;;;;;;;;;5069933;28;20635;-78
2022/04/19 08:21:34;;;;;;;1.57;1.47;;;;;;;;;;5067201;28;20298;-76
2022/04/19 08:24:02;;;;;;;2.60;1.90;;;;;;;;;;5070621;28;20309;-77
2022/04/19 08:26:30;;;;;;;3.77;1.97;;;;;;;;;;5068828;28;20276;-77
2022/04/19 08:28:58;;;;;;;5.13;2.07;;;;;;;;;;5071145;28;20248;-77
2022/04/19 08:31:28;;;;;;;2.30;2.07;;;;;;;;;;5063903;28;20289;-77
2022/04/19 08:33:56;;;;;;;5.60;2.20;;;;;;;;;;5066959;28;20198;-77
2022/04/19 08:36:24;;;;;;;4.70;2.30;;;;;;;;;;5062347;28;20258;-77
2022/04/19 08:38:52;;;;;;;4.63;2.10;;;;;;;;;;5068121;28;20238;-76
2022/04/19 08:41:22;;;;;;;6.63;2.37;;;;;;;;;;5069391;28;20234;-76
2022/04/19 08:43:52;;;;;;;3.03;2.00;;;;;;;;;;5064825;28;20257;-76
2022/04/19 08:46:20;;;;;;;2.30;1.90;;;;;;;;;;5072157;28;20251;-77
2022/04/19 08:48:50;;;;;;;4.13;1.90;;;;;;;;;;5067551;28;20241;-78
2022/04/19 08:51:20;;;;;;;2.13;1.93;;;;;;;;;;5073684;28;20652;-79
2022/04/19 08:59:27;;;;;;;5.00;2.33;;;;;;;;;;5069260;28;20230;-76
2022/04/19 09:01:55;;;;;;;2.37;2.17;;;;;;;;;;5065169;28;20245;-76
2022/04/19 09:04:25;;;;;;;1.80;1.70;;;;;;;;;;5068964;28;20226;-75
2022/04/19 09:06:55;;;;;;;3.30;1.93;;;;;;;;;;5069246;28;20222;-79
2022/04/19 09:09:24;;;;;;;2.50;1.90;;;;;;;;;;5069907;28;20604;-79
2022/04/19 09:11:53;;;;;;;2.30;1.67;;;;;;;;;;5065202;28;20261;-78
2022/04/19 09:14:23;;;;;;;3.07;1.63;;;;;;;;;;5064133;28;20207;-78
2022/04/19 09:17:02;;;;;;;4.07;1.93;;;;;;;;;;5067315;28;20218;-75
2022/04/19 09:19:32;;;;;;;2.67;1.93;;;;;;;;;;5067389;28;20233;-76
2022/04/19 09:22:00;;;;;;;2.53;1.90;;;;;;;;;;5067570;28;20263;-79
2022/04/19 09:24:29;;;;;;;2.43;1.60;;;;;;;;;;5068087;28;20261;-76
2022/04/19 09:26:57;;;;;;;3.13;1.70;;;;;;;;;;5071490;28;20230;-77
2022/04/19 09:29:25;;;;;;;1.80;1.70;;;;;;;;;;5071063;28;20241;-76
2022/04/19 09:31:54;;;;;;;2.47;1.60;;;;;;;;;;5066924;28;20198;-78
2022/04/19 09:34:28;;;;;;;1.87;1.77;;;;;;;;;;5071958;28;20287;-77
2022/04/19 09:37:10;;;;;;;2.80;1.73;;;;;;;;;;5072678;28;20698;-76
2022/04/19 09:39:38;;;;;;;1.60;1.50;;;;;;;;;;5064602;28;20290;-76
2022/04/19 09:42:07;;;;;;;1.93;1.50;;;;;;;;;;5067165;28;20566;-77
2022/04/19 09:44:38;;;;;;;1.60;1.50;;;;;;;;;;5069814;28;20253;-76
2022/04/19 09:47:07;;;;;;;7.97;1.70;;;;;;;;;;5068639;28;20222;-76
2022/04/19 09:49:45;;;;;;;1.30;1.20;;;;;;;;;;5071311;28;20244;-80
2022/04/19 09:52:17;;;;;;;2.83;1.60;;;;;;;;;;5074064;28;20240;-78
2022/04/19 09:54:45;;;;;;;7.93;2.10;;;;;;;;;;5073666;28;20291;-77
2022/04/19 09:57:14;;;;;;;2.53;1.50;;;;;;;;;;5074863;28;20777;-76
2022/04/19 09:59:45;;;;;;;1.80;1.70;;;;;;;;;;5073641;28;20238;-76
2022/04/19 10:10:33;;;;;;;2.93;1.40;;;;;;;;;;5069940;28;20233;-76
2022/04/19 10:13:06;;;;;;;4.53;1.37;;;;;;;;;;5068018;28;20205;-76
2022/04/19 10:15:34;;;;;;;1.70;1.60;;;;;;;;;;5070321;28;20234;-78
2022/04/19 10:18:04;;;;;;;4.03;1.40;;;;;;;;;;5071026;28;20203;-77
2022/04/19 10:20:32;;;;;;;2.90;1.40;;;;;;;;;;5069296;28;20238;-79
2022/04/19 10:23:08;;;;;;;2.50;1.20;;;;;;;;;;5073275;28;20205;-78
2022/04/19 10:25:43;;;;;;;2.07;1.30;;;;;;;;;;5073054;28;20235;-78
2022/04/19 10:28:12;;;;;;;3.70;1.20;;;;;;;;;;5072997;28;20306;-77
2022/04/19 10:30:48;;;;;;;1.47;1.03;;;;;;;;;;5075403;28;20210;-78
2022/04/19 10:33:35;;;;;;;4.27;2.30;;;;;;;;;;5074516;28;20297;-78
2022/04/19 10:36:13;;;;;;;2.63;1.17;;;;;;;;;;5072009;28;20257;-78
2022/04/19 10:38:42;;;;;;;1.77;1.23;;;;;;;;;;5073560;28;20733;-78
2022/04/19 10:41:11;;;;;;;3.73;1.23;;;;;;;;;;5075097;28;20249;-78
2022/04/19 10:43:39;;;;;;;4.07;1.23;;;;;;;;;;5066785;28;20234;-78
2022/04/19 10:46:22;;;;;;;1.67;1.17;;;;;;;;;;5077972;28;20265;-78
2022/04/19 10:49:09;;;;;;;3.37;1.23;;;;;;;;;;5078196;28;20205;-78
2022/04/19 10:51:37;;;;;;;1.83;1.30;;;;;;;;;;5075829;28;20218;-78
2022/04/19 10:54:07;;;;;;;1.30;1.20;;;;;;;;;;5073210;28;20290;-78
2022/04/19 10:56:50;;;;;;;1.80;1.00;;;;;;;;;;5069313;28;20335;-78
2022/04/19 10:59:21;;;;;;;1.00;0.87;;;;;;;;;;5069310;28;20206;-74
2022/04/19 11:01:49;;;;;;;1.17;1.00;;;;;;;;;;5069095;28;20230;-75
2022/04/19 11:04:32;;;;;;;1.90;0.90;;;;;;;;;;5070473;28;20660;-75
2022/04/19 11:07:01;;;;;;;4.03;1.00;;;;;;;;;;5067513;28;20242;-76
2022/04/19 11:09:31;;;;;;;1.57;1.23;;;;;;;;;;5065883;28;20678;-75
2022/04/19 11:12:08;;;;;;;2.37;1.50;;;;;;;;;;5063705;28;20281;-75
2022/04/19 11:14:37;;;;;;;1.47;1.07;;;;;;;;;;5070812;28;20686;-75
2022/04/19 11:17:22;;;;;;;1.53;1.07;;;;;;;;;;5073231;28;20311;-75
2022/04/19 11:19:58;;;;;;;1.63;1.20;;;;;;;;;;5069989;28;20251;-76
2022/04/19 11:22:29;;;;;;;1.50;1.10;;;;;;;;;;5071338;28;20209;-76
2022/04/19 11:25:03;;;;;;;1.30;1.20;;;;;;;;;;5067472;28;20254;-75
2022/04/19 11:27:49;;;;;;;1.33;1.23;;;;;;;;;;5072277;28;20229;-78
2022/04/19 11:30:18;;;;;;;1.40;1.30;;;;;;;;;;5070207;28;20289;-78
2022/04/19 11:32:49;;;;;;;2.13;1.80;;;;;;;;;;5074357;28;20260;-77
2022/04/19 11:35:18;;;;;;;1.10;1.00;;;;;;;;;;5070109;28;20210;-77
2022/04/19 11:37:46;;;;;;;1.37;1.10;;;;;;;;;;5073600;28;20237;-81
2022/04/19 11:48:38;;;;;;;1.60;1.50;;;;;;;;;;5068115;28;20294;-79
2022/04/19 11:51:07;;;;;;;3.17;1.23;;;;;;;;;;5066966;28;20260;-80
2022/04/19 11:53:36;;;;;;;3.73;1.07;;;;;;;;;;5068686;28;20213;-80
2022/04/19 11:56:06;;;;;;;1.10;1.10;;;;;;;;;;5061236;28;20218;-81
2022/04/19 11:58:35;;;;;;;0.70;0.70;;;;;;;;;;5062979;28;20202;-80
2022/04/19 12:01:05;;;;;;;1.23;1.00;;;;;;;;;;5066161;28;20318;-80
2022/04/19 12:03:34;;;;;;;1.27;1.13;;;;;;;;;;5073176;28;20501;-81
2022/04/19 12:06:07;;;;;;;1.37;0.93;;;;;;;;;;5075353;28;20309;-81
2022/04/19 12:08:37;;;;;;;0.97;0.97;;;;;;;;;;5074759;28;20229;-81
2022/04/19 12:11:07;;;;;;;1.57;0.90;;;;;;;;;;5075127;28;20194;-79
2022/04/19 12:13:36;;;;;;;1.17;1.03;;;;;;;;;;5074142;28;20233;-80
2022/04/19 12:16:07;;;;;;;1.10;1.10;;;;;;;;;;5074635;28;20215;-80
2022/04/19 12:18:35;;;;;;;2.00;1.03;;;;;;;;;;5073698;28;20205;-80
2022/04/19 12:21:04;;;;;;;0.97;0.90;;;;;;;;;;5074663;28;20615;-80
2022/04/19 12:23:34;;;;;;;1.20;0.80;;;;;;;;;;5074349;28;20586;-81
2022/04/19 12:26:03;;;;;;;3.00;1.10;;;;;;;;;;5076415;28;20321;-80
2022/04/19 12:28:41;;;;;;;0.80;0.80;;;;;;;;;;5066811;28;20323;-81
2022/04/19 12:31:09;;;;;;;2.63;0.83;;;;;;;;;;5066155;28;20214;-80
2022/04/19 12:33:53;;;;;;;0.80;0.80;;;;;;;;;;5069311;28;20222;-79
2022/04/19 12:36:25;;;;;;;1.83;1.10;;;;;;;;;;5068766;28;20254;-78
2022/04/19 12:39:01;;;;;;;1.90;1.17;;;;;;;;;;5070113;28;20239;-78
2022/04/19 12:41:36;;;;;;;4.00;1.20;;;;;;;;;;5067821;28;20657;-78
2022/04/19 12:44:07;;;;;;;1.90;1.33;;;;;;;;;;5067420;28;20286;-78
2022/04/19 12:46:42;;;;;;;1.50;1.40;;;;;;;;;;5068196;28;20309;-78
2022/04/19 12:49:20;;;;;;;1.03;1.03;;;;;;;;;;5065913;28;20201;-76
2022/04/19 12:51:58;;;;;;;2.03;1.83;;;;;;;;;;5073376;28;20233;-76
2022/04/19 12:54:26;;;;;;;2.10;1.20;;;;;;;;;;5066282;28;20652;-76
2022/04/19 12:57:00;;;;;;;2.60;1.50;;;;;;;;;;5072359;28;20270;-76
2022/04/19 12:59:30;;;;;;;1.57;1.30;;;;;;;;;;5075514;28;20202;-76
2022/04/19 13:01:58;;;;;;;3.53;1.23;;;;;;;;;;5073905;28;20270;-76
2022/04/19 13:04:27;;;;;;;0.80;0.80;;;;;;;;;;5055868;28;20290;-76
2022/04/19 13:12:32;;;;;;;1.20;1.10;;;;;;;;;;5057154;28;20644;-76
2022/04/19 13:15:04;;;;;;;1.60;1.50;;;;;;;;;;5071142;28;20194;-76
2022/04/19 13:17:32;;;;;;;2.17;1.30;;;;;;;;;;5068870;28;20711;-76
2022/04/19 13:20:00;;;;;;;1.87;1.50;;;;;;;;;;5061783;28;20257;-76
2022/04/19 13:22:29;;;;;;;3.90;1.40;;;;;;;;;;5074920;28;20206;-76
2022/04/19 13:24:57;;;;;;;1.10;1.10;;;;;;;;;;5071862;28;20289;-76
2022/04/19 13:27:26;;;;;;;1.47;1.37;;;;;;;;;;5069029;28;20227;-76
2022/04/19 13:29:54;;;;;;;1.03;1.03;;;;;;;;;;5072420;28;20240;-76
2022/04/19 13:32:23;;;;;;;1.10;1.00;;;;;;;;;;5068616;28;20697;-76
2022/04/19 13:34:51;;;;;;;2.13;1.17;;;;;;;;;;5064862;28;20230;-76
2022/04/19 13:38:23;;;;;;;1.90;1.37;;;;;;;;;;5071056;28;20214;-76
2022/04/19 13:40:08;;;;;;;0.97;0.90;;;;;;;;;;5074081;28;20744;-76
2022/04/19 13:42:36;;;;;;;1.90;1.30;;;;;;;;;;5075865;28;20256;-76
2022/04/19 13:45:04;;;;;;;2.40;1.10;;;;;;;;;;5066751;28;20231;-76
2022/04/19 13:47:34;;;;;;;1.70;1.10;;;;;;;;;;5069834;28;20273;-76
2022/04/19 13:50:02;;;;;;;1.53;1.43;;;;;;;;;;5069431;28;20242;-76
2022/04/19 13:52:33;;;;;;;1.67;1.07;;;;;;;;;;5066316;28;20290;-75
2022/04/19 13:55:01;;;;;;;1.23;1.13;;;;;;;;;;5067515;28;20627;-76
2022/04/19 13:57:30;;;;;;;4.30;1.80;;;;;;;;;;5072810;28;20231;-76
2022/04/19 13:59:58;;;;;;;4.33;1.47;;;;;;;;;;5075243;28;20203;-76
2022/04/19 14:02:26;;;;;;;1.10;1.00;;;;;;;;;;5072613;28;20608;-76
2022/04/19 14:04:56;;;;;;;1.63;1.40;;;;;;;;;;5076134;28;20209;-76
2022/04/19 14:07:24;;;;;;;1.83;1.20;;;;;;;;;;5076120;28;20229;-76
2022/04/19 14:09:52;;;;;;;1.17;1.10;;;;;;;;;;5069537;28;20210;-76
2022/04/19 14:12:21;;;;;;;1.93;1.40;;;;;;;;;;5074093;28;20235;-76
2022/04/19 14:14:48;;;;;;;1.17;1.10;;;;;;;;;;5071788;28;20244;-76
2022/04/19 14:17:17;;;;;;;1.40;1.30;;;;;;;;;;5068437;28;20254;-75
2022/04/19 14:19:44;;;;;;;2.43;1.40;;;;;;;;;;5063200;28;20275;-76
2022/04/19 14:22:14;;;;;;;2.60;1.50;;;;;;;;;;5075717;28;20217;-76
2022/04/19 14:24:43;;;;;;;2.30;1.20;;;;;;;;;;5064291;28;20754;-76
2022/04/19 14:27:11;;;;;;;1.90;1.40;;;;;;;;;;5075083;28;20324;-76
2022/04/19 14:35:16;;;;;;;2.53;1.77;;;;;;;;;;5070757;28;20289;-75
2022/04/19 14:37:46;;;;;;;4.07;1.60;;;;;;;;;;5072332;28;20233;-76
2022/04/19 14:40:14;;;;;;;1.50;1.40;;;;;;;;;;5077858;28;20214;-75
2022/04/19 14:42:42;;;;;;;2.10;1.47;;;;;;;;;;5067888;28;20705;-73
2022/04/19 14:45:12;;;;;;;1.50;1.20;;;;;;;;;;5069442;28;20235;-75
2022/04/19 14:47:41;;;;;;;2.47;1.23;;;;;;;;;;5070106;28;20225;-78
2022/04/19 14:50:09;;;;;;;2.57;1.60;;;;;;;;;;5070811;28;20211;-78
2022/04/19 14:52:36;;;;;;;1.90;1.60;;;;;;;;;;5066123;28;20198;-71
2022/04/19 14:55:06;;;;;;;1.83;1.33;;;;;;;;;;5071340;28;20198;-77
2022/04/19 14:57:34;;;;;;;1.27;1.17;;;;;;;;;;5064402;28;20237;-79
2022/04/19 15:00:05;;;;;;;1.50;1.40;;;;;;;;;;5059648;28;20234;-78
2022/04/19 15:02:33;;;;;;;2.67;1.60;;;;;;;;;;5072283;28;20246;-79
2022/04/19 15:05:04;;;;;;;1.67;1.53;;;;;;;;;;5064084;28;20261;-78
2022/04/19 15:07:32;;;;;;;2.30;1.40;;;;;;;;;;5063416;28;20258;-80
2022/04/19 15:10:00;;;;;;;2.40;1.40;;;;;;;;;;5066642;28;20238;-78
2022/04/19 15:12:52;;;;;;;1.53;1.43;;;;;;;;;;5071721;28;20216;-81
2022/04/19 15:15:21;;;;;;;1.23;1.23;;;;;;;;;;5073665;28;20218;-82
2022/04/19 15:17:49;;;;;;;1.80;1.30;;;;;;;;;;5066783;28;20253;-76
2022/04/19 15:20:17;;;;;;;1.73;1.63;;;;;;;;;;5071892;28;20202;-79
2022/04/19 15:22:45;;;;;;;1.30;1.20;;;;;;;;;;5074534;28;20230;-79
2022/04/19 15:25:13;;;;;;;2.10;1.47;;;;;;;;;;5073939;28;20249;-79
2022/04/19 15:27:41;;;;;;;2.87;1.50;;;;;;;;;;5064455;28;20413;-79
2022/04/19 15:30:11;;;;;;;2.57;1.70;;;;;;;;;;5065728;28;20263;-81
2022/04/19 15:32:40;;;;;;;1.10;1.00;;;;;;;;;;5067900;28;20272;-78
2022/04/19 15:35:08;;;;;;;1.17;0.93;;;;;;;;;;5074310;28;20206;-81
2022/04/19 15:37:37;;;;;;;3.80;1.33;;;;;;;;;;5067509;28;20202;-79
2022/04/19 15:40:05;;;;;;;1.40;1.30;;;;;;;;;;5072406;28;20206;-78
2022/04/19 15:42:35;;;;;;;2.23;1.10;;;;;;;;;;5069783;28;20211;-78
2022/04/19 15:45:06;;;;;;;2.27;1.03;;;;;;;;;;5069792;28;20651;-78
2022/04/19 15:47:39;;;;;;;1.10;0.97;;;;;;;;;;5074924;28;20229;-79